createdAt,value
2019-05-05T00:02:11.188Z,29.20
2019-05-05T00:04:46.081Z,29.20
2019-05-05T00:07:35.346Z,29.20
2019-05-05T00:10:10.230Z,29.20
2019-05-05T00:12:44.840Z,29.30
2019-05-05T00:15:18.087Z,29.30
2019-05-05T00:17:49.764Z,29.40
2019-05-05T00:20:22.132Z,29.40
2019-05-05T00:22:54.635Z,29.40
2019-05-05T00:25:26.208Z,29.50
2019-05-05T00:27:58.210Z,29.50
2019-05-05T00:30:57.075Z,29.60
2019-05-05T00:33:14.532Z,29.70
2019-05-05T00:52:56.099Z,29.90
2019-05-05T00:55:27.766Z,30.00
2019-05-05T00:58:00.090Z,30.00
2019-05-05T01:00:39.424Z,30.00
2019-05-05T01:03:11.453Z,30.10
2019-05-05T01:05:44.902Z,30.10
2019-05-05T01:08:17.867Z,30.20
2019-05-05T01:10:49.740Z,30.30
2019-05-05T01:13:21.442Z,30.30
2019-05-05T01:15:54.201Z,30.40
2019-05-05T01:18:28.573Z,30.50
2019-05-05T01:23:45.511Z,30.60
2019-05-05T01:26:17.544Z,30.70
2019-05-05T01:28:56.992Z,30.70
2019-05-05T01:31:26.751Z,30.80
2019-05-05T01:34:00.912Z,30.90
2019-05-05T01:39:31.030Z,31.00
2019-05-05T01:42:06.535Z,31.20
2019-05-05T01:44:38.084Z,31.30
2019-05-05T01:47:14.773Z,31.30
2019-05-05T01:49:45.475Z,31.40
2019-05-05T01:52:17.481Z,31.50
2019-05-05T01:54:49.459Z,31.70
2019-05-05T01:57:25.056Z,31.80
2019-05-05T02:00:01.147Z,31.90
2019-05-05T02:02:34.257Z,32.00
2019-05-05T02:05:07.011Z,32.10
2019-05-05T02:07:42.228Z,32.20
2019-05-05T02:10:17.216Z,32.30
2019-05-05T02:12:49.360Z,32.40
2019-05-05T02:15:21.277Z,32.50
2019-05-05T02:17:55.060Z,32.60
2019-05-05T02:20:31.203Z,32.70
2019-05-05T02:23:01.875Z,32.80
2019-05-05T02:25:34.549Z,32.80
2019-05-05T02:28:06.373Z,33.00
2019-05-05T02:30:39.564Z,33.00
2019-05-05T02:33:15.426Z,33.20
2019-05-05T02:35:46.176Z,33.20
2019-05-05T02:38:18.274Z,33.30
2019-05-05T02:40:54.674Z,33.40
2019-05-05T02:43:28.657Z,33.50
2019-05-05T02:46:05.676Z,33.70
2019-05-05T02:48:37.138Z,33.80
2019-05-05T02:51:14.838Z,33.80
2019-05-05T02:53:47.367Z,33.90
2019-05-05T02:56:23.745Z,34.00
2019-05-05T02:58:58.311Z,34.00
2019-05-05T03:01:34.047Z,34.10
2019-05-05T03:04:05.987Z,34.20
2019-05-05T03:06:39.492Z,34.30
2019-05-05T03:09:11.364Z,34.30
2019-05-05T03:11:43.824Z,34.40
2019-05-05T03:14:16.883Z,34.60
2019-05-05T03:16:59.035Z,34.60
2019-05-05T03:19:26.402Z,34.70
2019-05-05T03:21:58.491Z,34.70
2019-05-05T03:24:34.234Z,34.80
2019-05-05T03:27:06.673Z,34.90
2019-05-05T03:29:38.814Z,35.00
2019-05-05T03:32:11.611Z,35.00
2019-05-05T03:34:44.542Z,35.00
2019-05-05T03:37:16.717Z,35.00
2019-05-05T03:39:50.297Z,35.10
2019-05-05T03:42:24.383Z,35.10
2019-05-05T03:44:57.428Z,35.20
2019-05-05T03:47:31.110Z,35.20
2019-05-05T03:50:04.341Z,35.30
2019-05-05T03:52:36.283Z,35.30
2019-05-05T03:55:08.716Z,35.40
2019-05-05T03:57:40.757Z,35.40
2019-05-05T04:00:14.292Z,35.40
2019-05-05T04:02:47.167Z,35.40
2019-05-05T04:05:23.545Z,35.50
2019-05-05T04:07:54.575Z,35.60
2019-05-05T04:10:28.716Z,35.70
2019-05-05T04:15:50.333Z,35.80
2019-05-05T04:18:23.815Z,35.90
2019-05-05T04:20:57.145Z,36.00
2019-05-05T04:23:29.178Z,36.00
2019-05-05T04:26:01.063Z,36.10
2019-05-05T04:28:35.606Z,36.10
2019-05-05T04:31:07.222Z,36.20
2019-05-05T04:33:44.335Z,36.20
2019-05-05T04:36:15.439Z,36.20
2019-05-05T04:38:47.346Z,36.30
2019-05-05T04:41:19.403Z,36.40
2019-05-05T04:43:50.917Z,36.50
2019-05-05T04:46:24.409Z,36.70
2019-05-05T04:48:56.382Z,36.80
2019-05-05T04:51:29.580Z,36.80
2019-05-05T04:54:03.811Z,36.90
2019-05-05T04:56:35.344Z,37.00
2019-05-05T04:59:07.181Z,37.00
2019-05-05T05:01:39.591Z,37.00
2019-05-05T05:04:13.638Z,36.90
2019-05-05T05:06:45.811Z,36.90
2019-05-05T05:09:17.655Z,36.90
2019-05-05T05:11:49.788Z,36.90
2019-05-05T05:14:21.802Z,37.00
2019-05-05T05:16:54.853Z,37.00
2019-05-05T05:19:26.764Z,37.00
2019-05-05T05:22:01.822Z,37.00
2019-05-05T05:24:31.699Z,37.10
2019-05-05T05:27:05.015Z,37.10
2019-05-05T05:29:37.036Z,37.10
2019-05-05T05:32:08.799Z,37.10
2019-05-05T05:34:40.241Z,37.20
2019-05-05T05:37:13.413Z,37.30
2019-05-05T05:39:45.320Z,37.40
2019-05-05T05:42:17.134Z,37.50
2019-05-05T05:44:50.336Z,37.50
2019-05-05T05:47:24.446Z,37.50
2019-05-05T05:49:57.466Z,37.50
2019-05-05T05:52:29.259Z,37.50
2019-05-05T05:55:01.313Z,37.50
2019-05-05T05:57:34.595Z,37.50
2019-05-05T06:00:08.955Z,37.40
2019-05-05T06:02:40.867Z,37.40
2019-05-05T06:05:14.566Z,37.40
2019-05-05T06:07:45.803Z,37.30
2019-05-05T06:10:24.257Z,37.30
2019-05-05T06:12:51.128Z,37.40
2019-05-05T06:15:24.490Z,37.40
2019-05-05T06:17:55.976Z,37.50
2019-05-05T06:20:27.447Z,37.60
2019-05-05T06:22:59.305Z,37.60
2019-05-05T06:25:30.958Z,37.60
2019-05-05T06:28:04.265Z,37.50
2019-05-05T06:30:36.174Z,37.50
2019-05-05T06:33:08.335Z,37.60
2019-05-05T06:35:40.089Z,37.50
2019-05-05T06:38:13.658Z,37.60
2019-05-05T06:40:46.236Z,37.60
2019-05-05T06:43:19.073Z,37.50
2019-05-05T06:45:53.546Z,37.50
2019-05-05T06:48:26.246Z,37.40
2019-05-05T06:50:58.302Z,37.50
2019-05-05T06:53:29.790Z,37.60
2019-05-05T06:56:01.567Z,37.60
2019-05-05T06:58:34.725Z,37.50
2019-05-05T07:01:06.391Z,37.60
2019-05-05T07:03:38.714Z,37.60
2019-05-05T07:06:10.716Z,37.60
2019-05-05T07:08:43.894Z,37.60
2019-05-05T07:11:15.967Z,37.60
2019-05-05T07:13:48.898Z,37.60
2019-05-05T07:16:21.364Z,37.60
2019-05-05T07:18:53.930Z,37.60
2019-05-05T07:21:25.912Z,37.60
2019-05-05T07:23:58.240Z,37.50
2019-05-05T07:26:30.190Z,37.50
2019-05-05T07:29:04.413Z,37.40
2019-05-05T07:31:35.897Z,37.40
2019-05-05T07:34:08.707Z,37.50
2019-05-05T07:36:39.879Z,37.50
2019-05-05T07:39:14.391Z,37.70
2019-05-05T07:41:46.182Z,37.70
2019-05-05T07:44:28.325Z,37.60
2019-05-05T07:46:54.204Z,37.60
2019-05-05T07:49:25.516Z,37.60
2019-05-05T07:51:57.091Z,37.60
2019-05-05T07:54:28.961Z,37.60
2019-05-05T07:57:00.483Z,37.60
2019-05-05T07:59:33.902Z,37.70
2019-05-05T08:02:05.438Z,37.70
2019-05-05T08:04:37.766Z,37.70
2019-05-05T08:07:09.210Z,37.70
2019-05-05T08:09:40.964Z,37.70
2019-05-05T08:12:13.726Z,37.80
2019-05-05T08:14:45.241Z,37.80
2019-05-05T08:17:18.366Z,37.70
2019-05-05T08:19:51.066Z,37.80
2019-05-05T08:22:23.959Z,37.70
2019-05-05T08:24:57.327Z,37.80
2019-05-05T08:27:30.556Z,37.80
2019-05-05T08:30:05.157Z,37.70
2019-05-05T08:32:37.204Z,37.80
2019-05-05T08:35:09.666Z,37.70
2019-05-05T08:37:43.518Z,37.80
2019-05-05T08:40:14.906Z,37.80
2019-05-05T08:42:47.760Z,37.70
2019-05-05T08:45:19.940Z,37.70
2019-05-05T08:47:53.737Z,37.70
2019-05-05T08:50:27.113Z,37.70
2019-05-05T08:53:01.077Z,37.80
2019-05-05T08:55:36.306Z,37.70
2019-05-05T08:58:06.525Z,37.70
2019-05-05T09:00:38.494Z,37.80
2019-05-05T09:03:13.658Z,37.70
2019-05-05T09:05:48.648Z,37.60
2019-05-05T09:08:20.839Z,37.60
2019-05-05T09:10:55.004Z,37.60
2019-05-05T09:13:25.741Z,37.60
2019-05-05T09:15:57.323Z,37.60
2019-05-05T09:18:29.373Z,37.60
2019-05-05T09:21:00.777Z,37.60
2019-05-05T09:23:34.719Z,37.60
2019-05-05T09:26:07.967Z,37.60
2019-05-05T09:28:42.076Z,37.60
2019-05-05T09:31:14.623Z,37.60
2019-05-05T09:33:46.627Z,37.60
2019-05-05T09:36:18.209Z,37.50
2019-05-05T09:38:49.956Z,37.50
2019-05-05T09:41:23.458Z,37.50
2019-05-05T09:43:54.833Z,37.50
2019-05-05T09:46:26.650Z,37.50
2019-05-05T09:48:58.040Z,37.50
2019-05-05T09:51:30.111Z,37.50
2019-05-05T09:54:11.922Z,37.50
2019-05-05T09:56:35.466Z,37.50
2019-05-05T09:59:08.129Z,37.40
2019-05-05T10:01:39.822Z,37.40
2019-05-05T10:04:13.824Z,37.40
2019-05-05T10:06:47.726Z,37.40
2019-05-05T10:09:18.086Z,37.40
2019-05-05T10:11:49.927Z,37.30
2019-05-05T10:14:21.720Z,37.30
2019-05-05T10:16:54.042Z,37.20
2019-05-05T10:19:26.048Z,37.20
2019-05-05T10:21:57.403Z,37.20
2019-05-05T10:24:31.141Z,37.10
2019-05-05T10:27:04.734Z,37.10
2019-05-05T10:29:35.802Z,37.10
2019-05-05T10:32:08.031Z,37.10
2019-05-05T10:34:40.149Z,37.00
2019-05-05T10:37:14.123Z,36.90
2019-05-05T10:39:46.566Z,37.00
2019-05-05T10:42:18.377Z,36.90
2019-05-05T10:44:49.840Z,36.90
2019-05-05T10:47:21.589Z,36.90
2019-05-05T10:49:54.471Z,36.80
2019-05-05T10:52:26.801Z,36.50
2019-05-05T10:54:59.000Z,36.00
2019-05-05T10:57:30.676Z,35.50
2019-05-05T11:00:11.712Z,35.20
2019-05-05T11:02:35.175Z,35.00
2019-05-05T11:05:10.461Z,34.60
2019-05-05T11:07:42.437Z,34.50
2019-05-05T11:10:14.201Z,34.40
2019-05-05T11:12:46.171Z,34.30
2019-05-05T11:15:18.215Z,34.20
2019-05-05T11:17:50.385Z,34.10
2019-05-05T11:20:22.006Z,33.90
2019-05-05T11:22:54.214Z,33.60
2019-05-05T11:25:26.297Z,33.40
2019-05-05T11:28:00.253Z,33.30
2019-05-05T11:33:27.365Z,33.00
2019-05-05T11:36:00.295Z,33.00
2019-05-05T11:38:33.706Z,32.90
2019-05-05T11:41:04.963Z,32.80
2019-05-05T11:43:36.532Z,32.80
2019-05-05T11:46:08.603Z,32.70
2019-05-05T11:48:40.720Z,32.80
2019-05-05T11:51:14.757Z,32.80
2019-05-05T11:53:45.857Z,32.90
2019-05-05T11:56:17.983Z,32.90
2019-05-05T11:58:49.945Z,33.00
2019-05-05T12:01:23.765Z,33.00
2019-05-05T12:03:55.224Z,33.10
2019-05-05T12:06:27.279Z,33.10
2019-05-05T12:09:00.059Z,33.10
2019-05-05T12:11:34.397Z,33.10
2019-05-05T12:14:08.400Z,33.00
2019-05-05T12:16:40.223Z,33.10
2019-05-05T12:19:13.714Z,33.10
2019-05-05T12:21:45.220Z,33.10
2019-05-05T12:24:17.925Z,33.10
2019-05-05T12:26:50.781Z,33.10
2019-05-05T12:29:24.430Z,33.20
2019-05-05T12:31:55.697Z,33.20
2019-05-05T12:34:27.566Z,33.10
2019-05-05T12:36:59.148Z,33.00
2019-05-05T12:39:31.060Z,33.00
2019-05-05T12:42:04.625Z,33.00
2019-05-05T12:44:37.951Z,33.00
2019-05-05T12:47:11.383Z,33.00
2019-05-05T12:49:44.000Z,33.00
2019-05-05T12:52:16.199Z,32.90
2019-05-05T12:54:48.306Z,32.90
2019-05-05T12:57:20.414Z,32.90
2019-05-05T12:59:53.657Z,32.90
2019-05-05T13:02:25.659Z,32.90
2019-05-05T13:04:57.516Z,32.90
2019-05-05T13:07:29.438Z,32.90
2019-05-05T13:10:01.281Z,32.80
2019-05-05T13:12:34.419Z,32.80
2019-05-05T13:15:06.995Z,32.70
2019-05-05T13:17:38.967Z,32.60
2019-05-05T13:20:13.921Z,32.50
2019-05-05T13:22:46.434Z,32.50
2019-05-05T13:25:19.658Z,32.40
2019-05-05T13:27:51.724Z,32.30
2019-05-05T13:30:23.997Z,32.20
2019-05-05T13:32:56.058Z,32.20
2019-05-05T13:35:28.125Z,32.10
2019-05-05T13:37:59.577Z,32.00
2019-05-05T13:40:31.881Z,31.90
2019-05-05T13:43:04.232Z,31.80
2019-05-05T13:45:37.693Z,31.70
2019-05-05T13:48:20.964Z,31.60
2019-05-05T13:50:54.295Z,31.60
2019-05-05T13:53:26.274Z,31.50
2019-05-05T13:56:08.949Z,31.40
2019-05-05T13:58:30.916Z,31.30
2019-05-05T14:01:03.766Z,31.30
2019-05-05T14:03:36.384Z,31.20
2019-05-05T14:06:08.252Z,31.20
2019-05-05T14:08:39.464Z,31.20
2019-05-05T14:11:11.341Z,31.10
2019-05-05T14:13:45.463Z,31.10
2019-05-05T14:16:15.652Z,31.10
2019-05-05T14:18:47.464Z,31.10
2019-05-05T14:21:19.258Z,31.10
2019-05-05T14:23:54.428Z,31.10
2019-05-05T14:26:28.254Z,31.10
2019-05-05T14:28:58.780Z,31.10
2019-05-05T14:31:33.690Z,31.00
2019-05-05T14:34:06.434Z,31.00
2019-05-05T14:36:39.697Z,31.00
2019-05-05T14:39:14.669Z,31.00
2019-05-05T14:41:49.139Z,31.00
2019-05-05T14:44:23.887Z,31.00
2019-05-05T14:46:54.842Z,31.10
2019-05-05T14:49:26.135Z,31.10
2019-05-05T14:51:57.685Z,31.10
2019-05-05T14:54:29.275Z,31.00
2019-05-05T14:57:01.054Z,31.00
2019-05-05T14:59:34.092Z,30.90
2019-05-05T15:02:14.427Z,30.90
2019-05-05T15:04:46.363Z,30.90
2019-05-05T15:07:19.186Z,30.90
2019-05-05T15:09:52.212Z,30.80
2019-05-05T15:12:24.705Z,30.90
2019-05-05T15:14:56.476Z,30.80
2019-05-05T15:17:29.138Z,30.90
2019-05-05T15:20:00.829Z,30.90
2019-05-05T15:22:34.286Z,30.80
2019-05-05T15:25:07.026Z,30.80
2019-05-05T15:27:39.306Z,30.80
2019-05-05T15:30:11.490Z,30.80
2019-05-05T15:32:43.951Z,30.80
2019-05-05T15:35:16.072Z,30.80
2019-05-05T15:37:48.088Z,30.80
2019-05-05T15:40:20.623Z,30.80
2019-05-05T15:42:51.897Z,30.90
2019-05-05T15:45:23.707Z,30.90
2019-05-05T15:47:55.141Z,30.90
2019-05-05T15:50:26.670Z,30.90
2019-05-05T15:53:04.657Z,30.90
2019-05-05T15:55:36.782Z,30.90
2019-05-05T15:58:08.925Z,30.90
2019-05-05T16:00:40.305Z,30.90
2019-05-05T16:03:13.577Z,30.90
2019-05-05T16:05:47.167Z,30.90
2019-05-05T16:08:19.559Z,30.90
2019-05-05T16:10:51.703Z,30.90
2019-05-05T16:13:23.689Z,30.90
2019-05-05T16:15:56.637Z,30.90
2019-05-05T16:18:29.335Z,30.90
2019-05-05T16:21:03.613Z,30.90
2019-05-05T16:23:36.577Z,30.90
2019-05-05T16:26:08.848Z,31.00
2019-05-05T16:28:44.575Z,30.90
2019-05-05T16:31:23.487Z,30.90
2019-05-05T16:33:55.292Z,30.90
2019-05-05T16:36:27.438Z,30.90
2019-05-05T16:38:58.614Z,30.90
2019-05-05T16:41:30.462Z,30.90
2019-05-05T16:44:02.561Z,30.90
2019-05-05T16:46:34.259Z,30.90
2019-05-05T16:49:05.545Z,30.90
2019-05-05T16:51:38.249Z,30.90
2019-05-05T16:54:11.386Z,30.90
2019-05-05T16:56:44.137Z,30.90
2019-05-05T16:59:16.514Z,30.90
2019-05-05T17:01:49.858Z,30.80
2019-05-05T17:04:24.463Z,30.80
2019-05-05T17:06:56.430Z,30.80
2019-05-05T17:09:27.988Z,30.80
2019-05-05T17:12:00.707Z,30.70
2019-05-05T17:14:33.905Z,30.70
2019-05-05T17:17:07.307Z,30.70
2019-05-05T17:19:40.515Z,30.70
2019-05-05T17:22:13.758Z,30.70
2019-05-05T17:24:45.264Z,30.70
2019-05-05T17:27:16.952Z,30.70
2019-05-05T17:29:48.328Z,30.70
2019-05-05T17:32:19.659Z,30.70
2019-05-05T17:34:51.410Z,30.70
2019-05-05T17:37:23.935Z,30.70
2019-05-05T17:39:57.092Z,30.70
2019-05-05T17:42:31.462Z,30.70
2019-05-05T17:45:04.859Z,30.70
2019-05-05T17:47:38.090Z,30.70
2019-05-05T17:50:10.951Z,30.70
2019-05-05T17:52:43.924Z,30.70
2019-05-05T17:55:16.899Z,30.70
2019-05-05T17:57:58.798Z,30.70
2019-05-05T18:00:24.233Z,30.70
2019-05-05T18:02:55.579Z,30.60
2019-05-05T18:05:28.824Z,30.60
2019-05-05T18:08:01.987Z,30.60
2019-05-05T18:10:35.213Z,30.60
2019-05-05T18:13:09.980Z,30.50
2019-05-05T18:15:43.505Z,30.50
2019-05-05T18:18:15.555Z,30.50
2019-05-05T18:20:47.436Z,30.50
2019-05-05T18:23:19.837Z,30.50
2019-05-05T18:25:54.709Z,30.50
2019-05-05T18:28:27.264Z,30.50
2019-05-05T18:31:01.317Z,30.50
2019-05-05T18:33:33.981Z,30.50
2019-05-05T18:36:06.011Z,30.50
2019-05-05T18:38:37.419Z,30.50
2019-05-05T18:41:11.504Z,30.50
2019-05-05T18:43:44.696Z,30.50
2019-05-05T18:46:16.656Z,30.50
2019-05-05T18:48:48.306Z,30.50
2019-05-05T18:51:19.607Z,30.50
2019-05-05T18:53:51.375Z,30.50
2019-05-05T18:56:23.685Z,30.40
2019-05-05T18:58:55.681Z,30.40
2019-05-05T19:01:27.382Z,30.40
2019-05-05T19:04:00.832Z,30.40
2019-05-05T19:07:09.982Z,30.40
2019-05-05T19:09:53.705Z,30.40
2019-05-05T19:12:15.127Z,30.40
2019-05-05T19:14:46.901Z,30.30
2019-05-05T19:17:18.672Z,30.30
2019-05-05T19:19:51.784Z,30.30
2019-05-05T19:22:23.740Z,30.40
2019-05-05T19:24:55.778Z,30.40
2019-05-05T19:27:27.265Z,30.40
2019-05-05T19:29:59.339Z,30.40
2019-05-05T19:32:31.339Z,30.40
2019-05-05T19:35:03.990Z,30.40
2019-05-05T19:37:36.219Z,30.40
2019-05-05T19:40:10.050Z,30.40
2019-05-05T19:42:41.696Z,30.40
2019-05-05T19:45:13.282Z,30.40
2019-05-05T19:47:45.089Z,30.40
2019-05-05T19:50:18.495Z,30.40
2019-05-05T19:52:50.410Z,30.30
2019-05-05T19:55:22.407Z,30.30
2019-05-05T19:57:54.094Z,30.20
2019-05-05T20:00:26.340Z,30.20
2019-05-05T20:03:04.618Z,30.20
2019-05-05T20:05:30.931Z,30.20
2019-05-05T20:08:03.999Z,30.20
2019-05-05T20:10:35.571Z,30.20
2019-05-05T20:13:07.813Z,30.30
2019-05-05T20:15:40.785Z,30.20
2019-05-05T20:18:14.196Z,30.20
2019-05-05T20:20:46.002Z,30.30
2019-05-05T20:23:17.817Z,30.20
2019-05-05T20:25:49.803Z,30.30
2019-05-05T20:28:21.519Z,30.30
2019-05-05T20:30:54.097Z,30.30
2019-05-05T20:33:25.946Z,30.30
2019-05-05T20:35:59.134Z,30.30
2019-05-05T20:38:32.612Z,30.30
2019-05-05T20:41:05.648Z,30.30
2019-05-05T20:43:38.057Z,30.30
2019-05-05T20:46:10.268Z,30.40
2019-05-05T20:48:44.644Z,30.40
2019-05-05T20:51:15.581Z,30.40
2019-05-05T20:53:49.219Z,30.40
2019-05-05T20:56:20.556Z,30.40
2019-05-05T20:58:51.840Z,30.30
2019-05-05T21:01:24.639Z,30.30
2019-05-05T21:03:56.644Z,30.40
2019-05-05T21:06:28.718Z,30.30
2019-05-05T21:09:00.583Z,30.30
2019-05-05T21:11:32.368Z,30.30
2019-05-05T21:14:04.090Z,30.40
2019-05-05T21:16:36.708Z,30.40
2019-05-05T21:19:08.714Z,30.40
2019-05-05T21:21:41.839Z,30.40
2019-05-05T21:24:13.953Z,30.40
2019-05-05T21:26:46.958Z,30.40
2019-05-05T21:29:19.310Z,30.40
2019-05-05T21:31:51.231Z,30.40
2019-05-05T21:34:24.794Z,30.30
2019-05-05T21:36:56.472Z,30.40
2019-05-05T21:39:27.786Z,30.30
2019-05-05T21:41:59.621Z,30.30
2019-05-05T21:44:31.767Z,30.30
2019-05-05T21:47:03.972Z,30.30
2019-05-05T21:49:35.885Z,30.30
2019-05-05T21:52:09.131Z,30.40
2019-05-05T21:54:43.787Z,30.40
2019-05-05T21:57:16.376Z,30.40
2019-05-05T21:59:55.593Z,30.40
2019-05-05T22:02:23.459Z,30.40
2019-05-05T22:04:54.731Z,30.40
2019-05-05T22:07:26.557Z,30.40
2019-05-05T22:09:58.307Z,30.30
2019-05-05T22:12:29.803Z,30.30
2019-05-05T22:15:01.114Z,30.20
2019-05-05T22:17:33.644Z,30.20
2019-05-05T22:20:07.145Z,30.10
2019-05-05T22:22:40.147Z,30.10
2019-05-05T22:25:14.056Z,30.10
2019-05-05T22:27:45.072Z,30.10
2019-05-05T22:30:16.562Z,30.00
2019-05-05T22:32:47.989Z,30.00
2019-05-05T22:35:19.832Z,30.00
2019-05-05T22:37:53.608Z,29.90
2019-05-05T22:40:25.850Z,29.90
2019-05-05T22:42:58.022Z,29.90
2019-05-05T22:45:29.489Z,29.80
2019-05-05T22:48:04.826Z,29.80
2019-05-05T22:50:37.301Z,29.80
2019-05-05T22:53:09.176Z,29.80
2019-05-05T22:55:41.394Z,29.80
2019-05-05T22:58:14.355Z,29.80
2019-05-05T23:00:47.011Z,29.80
2019-05-05T23:03:20.192Z,29.80
2019-05-05T23:05:54.724Z,29.80
2019-05-05T23:08:26.791Z,29.80
2019-05-05T23:10:58.621Z,29.90
2019-05-05T23:13:39.659Z,29.80
2019-05-05T23:16:14.561Z,29.80
2019-05-05T23:18:45.689Z,29.80
2019-05-05T23:21:18.834Z,29.80
2019-05-05T23:23:51.829Z,29.80
2019-05-05T23:26:24.646Z,29.80
2019-05-05T23:28:56.176Z,29.80
2019-05-05T23:31:27.680Z,29.80
2019-05-05T23:33:59.018Z,29.80
2019-05-05T23:36:30.376Z,29.80
2019-05-05T23:39:03.922Z,29.80
2019-05-05T23:41:35.636Z,29.80
2019-05-05T23:44:08.486Z,29.80
2019-05-05T23:46:40.163Z,29.80
2019-05-05T23:49:13.799Z,29.80
2019-05-05T23:51:45.050Z,29.70
2019-05-05T23:54:24.660Z,29.80
2019-05-05T23:56:59.492Z,29.70
2019-05-05T23:59:34.546Z,29.80
